createdAt,value
2019-01-20T00:02:27.167Z,2.15
2019-01-20T00:05:08.447Z,2.80
2019-01-20T00:07:49.140Z,1.92
2019-01-20T00:10:29.803Z,2.08
2019-01-20T00:13:11.082Z,1.85
2019-01-20T00:15:51.655Z,1.52
2019-01-20T00:18:32.239Z,1.80
2019-01-20T00:21:14.147Z,1.50
2019-01-20T00:23:54.835Z,1.40
2019-01-20T00:26:35.476Z,1.40
2019-01-20T00:29:16.075Z,1.72
2019-01-20T00:31:56.736Z,2.05
2019-01-20T00:34:37.492Z,2.20
2019-01-20T00:37:18.220Z,1.52
2019-01-20T00:39:58.767Z,1.52
2019-01-20T00:42:39.427Z,1.30
2019-01-20T00:45:20.256Z,1.52
2019-01-20T00:48:00.987Z,1.72
2019-01-20T00:50:41.691Z,1.40
2019-01-20T00:53:22.247Z,1.35
2019-01-20T00:56:03.197Z,3.95
2019-01-20T00:58:43.888Z,1.10
2019-01-20T01:01:24.487Z,1.10
2019-01-20T01:04:05.211Z,0.80
2019-01-20T01:06:45.791Z,1.42
2019-01-20T01:09:26.791Z,1.20
2019-01-20T01:12:09.191Z,0.95
2019-01-20T01:14:49.927Z,1.10
2019-01-20T01:17:30.623Z,1.00
2019-01-20T01:20:12.543Z,1.90
2019-01-20T01:22:53.534Z,1.10
2019-01-20T01:25:34.213Z,0.90
2019-01-20T01:28:15.018Z,1.10
2019-01-20T01:30:55.674Z,1.00
2019-01-20T01:33:36.379Z,1.07
2019-01-20T01:36:16.931Z,1.17
2019-01-20T01:38:57.732Z,0.98
2019-01-20T01:41:39.192Z,1.75
2019-01-20T01:44:20.068Z,1.60
2019-01-20T01:47:00.695Z,0.85
2019-01-20T01:49:41.279Z,0.90
2019-01-20T01:52:22.233Z,0.80
2019-01-20T01:55:03.170Z,1.10
2019-01-20T01:57:43.725Z,1.07
2019-01-20T02:00:24.600Z,1.10
2019-01-20T02:03:05.463Z,0.85
2019-01-20T02:05:46.056Z,0.80
2019-01-20T02:08:26.504Z,0.90
2019-01-20T02:11:07.239Z,1.27
2019-01-20T02:13:47.909Z,1.05
2019-01-20T02:16:28.268Z,0.80
2019-01-20T02:19:08.943Z,0.78
2019-01-20T02:21:49.788Z,0.90
2019-01-20T02:24:30.650Z,1.02
2019-01-20T02:27:11.355Z,0.98
2019-01-20T02:29:52.109Z,0.98
2019-01-20T02:32:32.770Z,0.90
2019-01-20T02:35:13.567Z,0.90
2019-01-20T02:37:53.975Z,1.15
2019-01-20T02:40:34.512Z,0.90
2019-01-20T02:43:15.511Z,0.98
2019-01-20T02:45:56.147Z,0.70
2019-01-20T02:48:36.795Z,0.98
2019-01-20T02:51:17.553Z,1.57
2019-01-20T02:53:58.391Z,0.85
2019-01-20T02:56:38.974Z,1.05
2019-01-20T02:59:19.783Z,0.65
2019-01-20T03:02:00.454Z,1.05
2019-01-20T03:04:41.144Z,0.90
2019-01-20T03:07:21.768Z,0.90
2019-01-20T03:10:02.580Z,0.88
2019-01-20T03:12:43.187Z,0.90
2019-01-20T03:15:23.932Z,0.90
2019-01-20T03:18:04.647Z,0.85
2019-01-20T03:20:45.224Z,0.80
2019-01-20T03:23:25.999Z,0.82
2019-01-20T03:26:07.041Z,1.00
2019-01-20T03:28:47.855Z,1.57
2019-01-20T03:31:28.538Z,1.10
2019-01-20T03:34:09.311Z,1.00
2019-01-20T03:36:49.923Z,0.80
2019-01-20T03:39:30.711Z,1.15
2019-01-20T03:42:12.343Z,0.90
2019-01-20T03:44:53.430Z,0.93
2019-01-20T03:47:34.087Z,1.02
2019-01-20T03:50:14.892Z,1.52
2019-01-20T03:52:55.609Z,0.90
2019-01-20T03:55:36.412Z,1.02
2019-01-20T03:58:17.411Z,1.00
2019-01-20T04:00:59.611Z,1.00
2019-01-20T04:03:39.967Z,0.90
2019-01-20T04:06:20.781Z,1.10
2019-01-20T04:09:01.427Z,1.00
2019-01-20T04:11:42.150Z,1.27
2019-01-20T04:14:22.858Z,1.67
2019-01-20T04:17:03.617Z,1.10
2019-01-20T04:19:44.393Z,1.02
2019-01-20T04:22:24.998Z,1.25
2019-01-20T04:25:05.743Z,1.20
2019-01-20T04:27:46.091Z,1.92
2019-01-20T04:30:26.565Z,1.10
2019-01-20T04:33:07.211Z,1.10
2019-01-20T04:35:48.023Z,2.27
2019-01-20T04:38:28.619Z,1.20
2019-01-20T04:41:09.351Z,1.40
2019-01-20T04:43:49.754Z,1.07
2019-01-20T04:46:30.287Z,1.00
2019-01-20T04:49:10.799Z,1.00
2019-01-20T04:51:51.730Z,0.93
2019-01-20T04:54:32.603Z,0.90
2019-01-20T04:57:15.164Z,0.93
2019-01-20T04:59:55.432Z,1.22
2019-01-20T05:02:36.023Z,1.30
2019-01-20T05:05:16.620Z,1.00
2019-01-20T05:07:57.207Z,0.93
2019-01-20T05:10:40.120Z,1.47
2019-01-20T05:13:21.195Z,0.90
2019-01-20T05:16:01.861Z,0.93
2019-01-20T05:18:42.468Z,1.98
2019-01-20T05:21:23.361Z,2.50
2019-01-20T05:24:04.032Z,1.10
2019-01-20T05:26:44.782Z,1.25
2019-01-20T05:29:25.545Z,0.88
2019-01-20T05:32:06.444Z,1.17
2019-01-20T05:34:47.414Z,0.98
2019-01-20T05:37:28.010Z,0.90
2019-01-20T05:40:08.623Z,0.90
2019-01-20T05:42:50.265Z,0.90
2019-01-20T05:45:30.755Z,0.95
2019-01-20T05:48:11.475Z,1.07
2019-01-20T05:50:52.096Z,1.00
2019-01-20T05:53:32.983Z,0.80
2019-01-20T05:56:13.701Z,1.05
2019-01-20T05:58:54.663Z,0.95
2019-01-20T06:01:35.439Z,1.00
2019-01-20T06:04:16.147Z,1.00
2019-01-20T06:06:56.609Z,0.90
2019-01-20T06:09:37.390Z,0.93
2019-01-20T06:12:18.088Z,1.10
2019-01-20T06:14:58.864Z,1.27
2019-01-20T06:17:39.694Z,0.90
2019-01-20T06:20:20.056Z,0.85
2019-01-20T06:23:00.668Z,0.90
2019-01-20T06:25:41.300Z,0.90
2019-01-20T06:28:21.776Z,1.00
2019-01-20T06:31:02.327Z,0.90
2019-01-20T06:33:42.987Z,1.20
2019-01-20T06:36:23.680Z,1.05
2019-01-20T06:39:04.891Z,1.92
2019-01-20T06:41:45.971Z,2.00
2019-01-20T06:44:26.716Z,1.10
2019-01-20T06:47:07.518Z,1.32
2019-01-20T06:49:48.319Z,1.87
2019-01-20T06:52:28.929Z,1.22
2019-01-20T06:55:09.950Z,1.00
2019-01-20T06:57:50.584Z,1.10
2019-01-20T07:00:31.372Z,1.27
2019-01-20T07:03:12.255Z,1.12
2019-01-20T07:05:53.015Z,1.15
2019-01-20T07:08:33.703Z,1.85
2019-01-20T07:11:14.583Z,1.30
2019-01-20T07:13:55.125Z,1.60
2019-01-20T07:16:35.959Z,1.35
2019-01-20T07:19:16.752Z,0.85
2019-01-20T07:21:57.537Z,4.00
2019-01-20T07:24:38.481Z,2.92
2019-01-20T07:27:19.053Z,2.47
2019-01-20T07:29:59.587Z,2.87
2019-01-20T07:32:40.495Z,2.02
2019-01-20T07:35:20.948Z,1.10
2019-01-20T07:38:01.539Z,1.17
2019-01-20T07:40:42.065Z,1.25
2019-01-20T07:43:22.739Z,1.00
2019-01-20T07:46:03.379Z,1.98
2019-01-20T07:48:44.499Z,1.20
2019-01-20T07:51:24.917Z,0.70
2019-01-20T07:54:05.807Z,1.00
2019-01-20T07:56:46.420Z,0.80
2019-01-20T07:59:27.319Z,1.00
2019-01-20T08:02:08.079Z,0.80
2019-01-20T08:04:48.738Z,0.98
2019-01-20T08:07:29.386Z,0.88
2019-01-20T08:10:10.113Z,1.02
2019-01-20T08:12:50.817Z,1.50
2019-01-20T08:15:32.390Z,1.35
2019-01-20T08:18:13.067Z,1.35
2019-01-20T08:20:53.519Z,1.00
2019-01-20T08:23:34.276Z,1.10
2019-01-20T08:26:14.974Z,1.22
2019-01-20T08:28:55.776Z,1.00
2019-01-20T08:31:37.832Z,0.90
2019-01-20T08:34:19.107Z,0.90
2019-01-20T08:36:59.707Z,1.40
2019-01-20T08:39:40.535Z,2.62
2019-01-20T08:42:21.411Z,3.10
2019-01-20T08:45:01.795Z,1.52
2019-01-20T08:47:42.400Z,1.70
2019-01-20T08:50:23.112Z,1.80
2019-01-20T08:53:03.884Z,1.50
2019-01-20T08:55:44.618Z,1.42
2019-01-20T08:58:25.275Z,1.42
2019-01-20T09:01:06.149Z,1.47
2019-01-20T09:03:46.934Z,1.60
2019-01-20T09:06:27.564Z,1.80
2019-01-20T09:09:08.240Z,1.92
2019-01-20T09:11:48.872Z,1.67
2019-01-20T09:14:29.626Z,1.25
2019-01-20T09:17:10.427Z,2.27
2019-01-20T09:19:51.231Z,1.67
2019-01-20T09:22:31.839Z,1.30
2019-01-20T09:25:12.467Z,9.48
2019-01-20T09:27:53.097Z,9.45
2019-01-20T09:30:33.735Z,15.13
2019-01-20T09:33:14.396Z,7.45
2019-01-20T09:35:55.133Z,3.50
2019-01-20T09:38:35.753Z,3.70
2019-01-20T09:41:16.323Z,7.05
2019-01-20T09:43:56.848Z,8.85
2019-01-20T09:46:37.631Z,9.60
2019-01-20T09:49:18.235Z,11.08
2019-01-20T09:51:58.856Z,16.50
2019-01-20T09:54:39.627Z,7.95
2019-01-20T09:57:20.360Z,9.28
2019-01-20T10:00:01.316Z,6.17
2019-01-20T10:02:42.100Z,6.95
2019-01-20T10:05:22.751Z,6.60
2019-01-20T10:08:03.429Z,7.58
2019-01-20T10:10:44.323Z,4.10
2019-01-20T10:13:25.083Z,5.53
2019-01-20T10:16:05.590Z,4.95
2019-01-20T10:18:46.115Z,6.65
2019-01-20T10:21:26.687Z,6.87
2019-01-20T10:24:07.408Z,5.90
2019-01-20T10:26:48.131Z,6.10
2019-01-20T10:29:28.971Z,7.45
2019-01-20T10:32:09.324Z,7.40
2019-01-20T10:34:51.331Z,4.75
2019-01-20T10:37:32.139Z,4.90
2019-01-20T10:40:12.767Z,3.20
2019-01-20T10:42:53.808Z,5.20
2019-01-20T10:45:36.587Z,4.83
2019-01-20T10:48:17.264Z,2.05
2019-01-20T10:50:57.837Z,2.50
2019-01-20T10:53:38.419Z,2.47
2019-01-20T10:56:19.204Z,3.00
2019-01-20T10:59:00.027Z,2.20
2019-01-20T11:01:40.912Z,2.40
2019-01-20T11:04:21.620Z,1.60
2019-01-20T11:07:02.193Z,1.77
2019-01-20T11:09:42.679Z,1.40
2019-01-20T11:15:07.338Z,1.77
2019-01-20T11:17:48.405Z,1.55
2019-01-20T11:20:29.075Z,2.40
2019-01-20T11:23:09.759Z,2.00
2019-01-20T11:25:50.733Z,1.92
2019-01-20T11:28:32.310Z,1.50
2019-01-20T11:31:13.028Z,1.47
2019-01-20T11:33:53.764Z,1.77
2019-01-20T11:36:34.488Z,2.22
2019-01-20T13:39:27.600Z,7.47
2019-01-20T13:42:08.329Z,8.65
2019-01-20T13:44:48.888Z,7.97
2019-01-20T13:50:16.771Z,9.35
2019-01-20T13:55:46.778Z,11.65
2019-01-20T13:58:27.352Z,9.48
2019-01-20T14:04:03.706Z,8.90
2019-01-20T14:06:44.023Z,9.60
2019-01-20T14:09:24.835Z,9.43
2019-01-20T14:12:05.530Z,9.45
2019-01-20T14:14:46.043Z,9.70
2019-01-20T14:17:26.548Z,11.18
2019-01-20T14:25:55.011Z,10.60
2019-01-20T14:28:35.619Z,10.28
2019-01-20T14:31:16.105Z,14.93
2019-01-20T14:33:56.843Z,10.40
2019-01-20T14:36:37.638Z,11.22
2019-01-20T14:39:18.027Z,10.23
2019-01-20T14:41:58.967Z,11.08
2019-01-20T14:44:39.740Z,10.15
2019-01-20T14:47:20.135Z,11.05
2019-01-20T14:50:00.848Z,9.78
2019-01-20T14:52:41.468Z,9.98
2019-01-20T14:55:22.147Z,9.40
2019-01-20T14:58:02.784Z,11.30
2019-01-20T15:00:43.492Z,12.60
2019-01-20T15:03:24.015Z,9.50
2019-01-20T15:41:02.234Z,9.00
2019-01-20T15:43:42.690Z,9.93
2019-01-20T15:46:23.265Z,7.55
2019-01-20T15:49:04.099Z,7.20
2019-01-20T15:51:44.597Z,7.00
2019-01-20T15:54:25.263Z,7.90
2019-01-20T15:57:05.716Z,7.95
2019-01-20T15:59:46.266Z,6.05
2019-01-20T16:02:27.416Z,6.08
2019-01-20T16:05:08.051Z,5.08
2019-01-20T16:07:49.291Z,5.35
2019-01-20T16:10:29.837Z,5.50
2019-01-20T16:13:10.579Z,6.72
2019-01-20T16:15:51.198Z,5.85
2019-01-20T16:18:31.949Z,5.42
2019-01-20T16:21:12.661Z,4.03
2019-01-20T16:23:53.459Z,5.95
2019-01-20T16:26:34.067Z,4.95
2019-01-20T16:29:14.648Z,5.58
2019-01-20T16:31:55.317Z,8.23
2019-01-20T16:34:35.971Z,5.55
2019-01-20T16:37:16.647Z,7.40
2019-01-20T16:39:57.005Z,6.15
2019-01-20T16:42:37.680Z,5.37
2019-01-20T16:45:18.311Z,5.08
2019-01-20T16:47:59.000Z,5.20
2019-01-20T16:50:39.339Z,5.65
2019-01-20T16:53:20.097Z,6.08
2019-01-20T16:56:00.804Z,7.03
2019-01-20T16:58:42.651Z,5.60
2019-01-20T17:01:23.095Z,6.20
2019-01-20T17:04:03.686Z,6.15
2019-01-20T17:06:44.219Z,7.83
2019-01-20T17:09:24.764Z,6.42
2019-01-20T17:12:05.567Z,5.87
2019-01-20T17:14:46.148Z,7.75
2019-01-20T17:17:26.760Z,7.62
2019-01-20T17:20:07.454Z,7.60
2019-01-20T17:22:48.311Z,6.58
2019-01-20T17:25:28.747Z,5.75
2019-01-20T17:28:09.914Z,6.28
2019-01-20T17:30:50.871Z,6.08
2019-01-20T17:33:31.556Z,6.80
2019-01-20T17:36:12.498Z,7.00
2019-01-20T17:38:54.395Z,6.45
2019-01-20T17:41:35.743Z,6.25
2019-01-20T17:44:16.051Z,8.83
2019-01-20T17:46:56.987Z,9.53
2019-01-20T17:49:37.404Z,12.47
2019-01-20T17:52:18.059Z,5.67
2019-01-20T17:54:58.445Z,6.15
2019-01-20T17:57:39.315Z,10.93
2019-01-20T18:00:20.007Z,8.68
2019-01-20T18:03:00.308Z,6.83
2019-01-20T18:05:41.159Z,7.90
2019-01-20T18:08:21.648Z,7.28
2019-01-20T18:11:02.459Z,6.67
2019-01-20T18:13:43.308Z,7.78
2019-01-20T18:16:23.939Z,6.22
2019-01-20T18:19:04.706Z,7.87
2019-01-20T18:21:45.395Z,7.17
2019-01-20T18:24:25.999Z,5.90
2019-01-20T18:27:06.681Z,6.00
2019-01-20T18:29:47.183Z,8.18
2019-01-20T18:32:27.979Z,6.70
2019-01-20T18:35:08.560Z,8.30
2019-01-20T18:37:49.453Z,6.80
2019-01-20T18:40:30.649Z,5.60
2019-01-20T18:43:11.527Z,10.60
2019-01-20T18:45:52.019Z,6.17
2019-01-20T18:48:32.796Z,7.80
2019-01-20T18:51:13.570Z,5.80
2019-01-20T18:53:54.355Z,5.85
2019-01-20T18:56:34.940Z,6.05
2019-01-20T18:59:15.515Z,6.78
2019-01-20T19:01:56.139Z,6.20
2019-01-20T19:04:37.096Z,7.58
2019-01-20T19:07:17.791Z,8.48
2019-01-20T19:09:58.363Z,7.80
2019-01-20T19:12:38.965Z,6.42
2019-01-20T19:15:19.667Z,7.45
2019-01-20T19:18:00.397Z,7.08
2019-01-20T19:20:41.117Z,6.47
2019-01-20T19:23:22.439Z,8.90
2019-01-20T19:26:03.161Z,7.20
2019-01-20T19:28:43.916Z,5.75
2019-01-20T19:31:24.491Z,7.33
2019-01-20T19:34:05.087Z,7.53
2019-01-20T19:36:45.652Z,6.37
2019-01-20T19:39:26.287Z,6.53
2019-01-20T19:42:09.274Z,7.53
2019-01-20T19:44:49.689Z,5.83
2019-01-20T19:47:30.428Z,5.67
2019-01-20T19:50:11.155Z,8.48
2019-01-20T19:52:51.999Z,6.75
2019-01-20T19:55:32.692Z,8.20
2019-01-20T19:58:13.473Z,8.90
2019-01-20T20:00:42.335Z,7.05
2019-01-20T20:03:11.315Z,6.83
2019-01-20T20:05:40.191Z,8.35
2019-01-20T20:08:09.143Z,6.58
2019-01-20T20:10:38.022Z,7.72
2019-01-20T20:13:07.114Z,7.37
2019-01-20T20:15:36.015Z,6.15
2019-01-20T20:18:05.891Z,6.83
2019-01-20T20:20:34.758Z,7.22
2019-01-20T20:23:03.523Z,6.65
2019-01-20T20:25:32.380Z,9.03
2019-01-20T20:28:01.155Z,10.85
2019-01-20T20:30:32.346Z,6.37
2019-01-20T20:33:01.187Z,7.42
2019-01-20T20:35:30.031Z,6.70
2019-01-20T20:37:58.790Z,9.43
2019-01-20T20:40:27.634Z,8.80
2019-01-20T20:42:56.394Z,7.75
2019-01-20T20:45:28.269Z,7.10
2019-01-20T20:47:57.139Z,8.35
2019-01-20T20:50:25.995Z,6.30
2019-01-20T20:52:55.968Z,9.60
2019-01-20T20:55:24.815Z,8.85
2019-01-20T20:57:53.612Z,5.85
2019-01-20T21:00:37.051Z,10.38
2019-01-20T21:03:27.269Z,7.78
2019-01-20T21:05:56.658Z,6.17
2019-01-20T21:08:25.440Z,8.48
2019-01-20T21:10:54.318Z,7.10
2019-01-20T21:13:23.151Z,7.20
2019-01-20T21:15:52.003Z,7.37
2019-01-20T21:18:20.757Z,6.55
2019-01-20T21:20:49.663Z,6.30
2019-01-20T21:23:18.421Z,7.25
2019-01-20T21:25:47.187Z,7.87
2019-01-20T21:28:15.951Z,7.53
2019-01-20T21:30:44.825Z,7.65
2019-01-20T21:33:13.579Z,7.10
2019-01-20T21:35:42.378Z,8.33
2019-01-20T21:38:11.143Z,7.72
2019-01-20T21:40:39.907Z,8.13
2019-01-20T21:43:08.770Z,8.65
2019-01-20T21:45:37.583Z,6.22
2019-01-20T21:48:06.512Z,6.83
2019-01-20T21:50:35.315Z,7.12
2019-01-20T21:53:04.159Z,7.00
2019-01-20T21:55:33.040Z,6.62
2019-01-20T21:58:01.815Z,9.53
2019-01-20T22:00:30.642Z,9.68
2019-01-20T22:02:59.427Z,7.10
2019-01-20T22:05:28.274Z,9.05
2019-01-20T22:07:57.043Z,6.62
2019-01-20T22:10:25.883Z,11.15
2019-01-20T22:12:54.722Z,7.45
2019-01-20T22:15:23.562Z,10.15
2019-01-20T22:17:52.511Z,8.95
2019-01-20T22:20:22.783Z,10.85
2019-01-20T22:22:52.306Z,6.08
2019-01-20T22:25:21.216Z,9.75
2019-01-20T22:27:50.012Z,9.95
2019-01-20T22:30:26.755Z,8.43
2019-01-20T22:32:55.733Z,9.90
2019-01-20T22:35:24.587Z,7.40
2019-01-20T22:37:53.428Z,7.78
2019-01-20T22:40:22.347Z,6.58
2019-01-20T22:42:51.211Z,9.63
2019-01-20T22:45:25.240Z,9.08
2019-01-20T22:47:54.080Z,8.90
2019-01-20T22:50:23.087Z,11.20
2019-01-20T22:52:52.004Z,9.03
2019-01-20T22:55:20.839Z,9.00
2019-01-20T22:57:49.772Z,8.03
2019-01-20T23:00:26.216Z,8.70
2019-01-20T23:02:55.163Z,10.82
2019-01-20T23:05:24.198Z,9.03
2019-01-20T23:07:52.976Z,9.08
2019-01-20T23:10:21.738Z,12.33
2019-01-20T23:12:50.591Z,8.58
2019-01-20T23:15:19.363Z,8.68
2019-01-20T23:17:48.172Z,7.72
2019-01-20T23:20:17.155Z,11.53
2019-01-20T23:22:46.188Z,10.20
2019-01-20T23:25:14.959Z,11.12
2019-01-20T23:27:43.837Z,10.80
2019-01-20T23:30:12.943Z,9.30
2019-01-20T23:32:41.775Z,10.95
2019-01-20T23:35:10.744Z,9.38
2019-01-20T23:37:39.502Z,9.25
2019-01-20T23:40:09.023Z,8.10
2019-01-20T23:42:37.780Z,7.85
2019-01-20T23:45:07.999Z,8.98
2019-01-20T23:47:36.766Z,10.68
2019-01-20T23:50:07.227Z,9.55
2019-01-20T23:52:36.084Z,10.38
2019-01-20T23:55:05.614Z,7.22
2019-01-20T23:57:34.468Z,9.35
